createdAt,value
2023-05-05T00:03:50.946Z,17.80
2023-05-05T00:08:53.274Z,17.79
2023-05-05T00:13:55.214Z,17.67
2023-05-05T00:18:57.585Z,17.68
2023-05-05T00:24:00.206Z,17.58
2023-05-05T00:29:02.070Z,17.64
2023-05-05T00:34:04.152Z,17.57
2023-05-05T00:39:06.412Z,17.50
2023-05-05T00:44:10.354Z,17.46
2023-05-05T00:49:12.438Z,17.37
2023-05-05T00:54:14.539Z,17.25
2023-05-05T00:59:16.549Z,17.28
2023-05-05T01:04:18.933Z,17.33
2023-05-05T01:09:39.627Z,17.30
2023-05-05T01:14:45.246Z,17.10
2023-05-05T01:19:50.832Z,16.92
2023-05-05T01:25:04.755Z,16.96
2023-05-05T01:30:34.273Z,16.90
2023-05-05T01:35:41.825Z,16.84
2023-05-05T01:41:07.933Z,16.78
2023-05-05T01:46:10.590Z,16.78
2023-05-05T01:51:13.427Z,16.67
2023-05-05T01:56:16.112Z,16.58
2023-05-05T02:01:19.541Z,16.54
2023-05-05T02:06:23.229Z,16.73
2023-05-05T02:11:27.069Z,16.52
2023-05-05T02:16:31.346Z,16.44
2023-05-05T02:21:34.616Z,16.34
2023-05-05T02:26:39.670Z,16.24
2023-05-05T02:31:51.247Z,16.13
2023-05-05T02:37:03.817Z,16.07
2023-05-05T02:42:11.295Z,16.07
2023-05-05T02:47:13.606Z,15.62
2023-05-05T02:52:16.092Z,15.52
2023-05-05T02:57:51.664Z,15.40
2023-05-05T03:02:58.198Z,15.17
2023-05-05T03:08:32.692Z,14.90
2023-05-05T03:13:36.327Z,14.89
2023-05-05T03:18:41.418Z,14.80
2023-05-05T03:23:43.751Z,14.80
2023-05-05T03:28:53.510Z,14.76
2023-05-05T03:34:03.273Z,14.83
2023-05-05T03:39:11.167Z,14.87
2023-05-05T03:44:13.757Z,14.87
2023-05-05T03:49:16.469Z,14.80
2023-05-05T03:54:21.959Z,14.75
2023-05-05T03:59:24.068Z,14.74
2023-05-05T04:04:28.588Z,14.65
2023-05-05T04:09:31.893Z,14.51
2023-05-05T04:14:40.630Z,14.45
2023-05-05T04:19:43.627Z,14.38
2023-05-05T04:24:45.741Z,14.21
2023-05-05T04:29:47.888Z,14.16
2023-05-05T04:34:49.965Z,14.02
2023-05-05T04:39:52.864Z,14.05
2023-05-05T04:44:55.518Z,14.06
2023-05-05T04:49:58.264Z,14.08
2023-05-05T04:55:01.400Z,13.86
2023-05-05T05:00:07.304Z,13.82
2023-05-05T05:05:10.001Z,13.91
2023-05-05T05:10:12.927Z,13.79
2023-05-05T05:15:14.936Z,13.90
2023-05-05T05:20:17.129Z,13.94
2023-05-05T05:25:19.329Z,13.97
2023-05-05T05:30:23.249Z,13.94
2023-05-05T05:35:25.635Z,13.99
2023-05-05T05:40:28.191Z,13.74
2023-05-05T05:45:30.904Z,13.90
2023-05-05T05:50:32.992Z,13.95
2023-05-05T05:55:35.540Z,13.86
2023-05-05T06:00:37.812Z,13.82
2023-05-05T06:05:45.609Z,13.80
2023-05-05T06:10:48.741Z,13.75
2023-05-05T06:15:53.970Z,13.75
2023-05-05T06:20:56.443Z,13.80
2023-05-05T06:26:02.175Z,13.92
2023-05-05T06:31:04.183Z,13.86
2023-05-05T06:36:06.597Z,13.98
2023-05-05T06:41:08.866Z,14.12
2023-05-05T06:46:11.529Z,14.20
2023-05-05T06:51:17.690Z,14.23
2023-05-05T06:56:19.851Z,14.47
2023-05-05T07:01:23.632Z,14.67
2023-05-05T07:06:25.820Z,14.81
2023-05-05T07:11:27.902Z,14.99
2023-05-05T07:16:29.951Z,15.11
2023-05-05T07:21:35.767Z,15.19
2023-05-05T07:26:39.108Z,15.37
2023-05-05T07:31:41.967Z,15.61
2023-05-05T07:36:44.602Z,15.84
2023-05-05T07:41:46.575Z,16.02
2023-05-05T07:46:50.088Z,16.15
2023-05-05T07:51:52.056Z,16.36
2023-05-05T07:56:54.292Z,16.60
2023-05-05T08:01:56.413Z,16.78
2023-05-05T08:06:58.526Z,17.05
2023-05-05T08:12:02.474Z,17.38
2023-05-05T08:17:04.454Z,17.56
2023-05-05T08:22:06.773Z,17.90
2023-05-05T08:27:08.763Z,18.22
2023-05-05T08:32:11.026Z,18.59
2023-05-05T08:37:13.120Z,19.07
2023-05-05T08:42:25.472Z,19.73
2023-05-05T08:47:36.199Z,20.85
2023-05-05T08:52:40.748Z,22.12
2023-05-05T08:57:53.336Z,23.06
2023-05-05T09:02:59.960Z,23.16
2023-05-05T09:08:02.695Z,24.07
2023-05-05T09:13:07.162Z,24.99
2023-05-05T09:18:09.748Z,25.27
2023-05-05T09:23:13.880Z,25.35
2023-05-05T09:28:18.845Z,25.50
2023-05-05T09:33:31.368Z,26.77
2023-05-05T09:38:35.805Z,26.52
2023-05-05T09:43:52.996Z,27.03
2023-05-05T09:48:55.133Z,27.13
2023-05-05T09:53:57.915Z,27.70
2023-05-05T09:59:08.810Z,27.68
2023-05-05T10:04:27.187Z,27.56
2023-05-05T10:09:29.742Z,28.32
2023-05-05T10:14:32.253Z,28.61
2023-05-05T10:19:35.484Z,29.04
2023-05-05T10:24:43.642Z,28.86
2023-05-05T10:29:51.269Z,28.71
2023-05-05T10:42:21.701Z,29.21
2023-05-05T10:47:26.003Z,29.43
2023-05-05T11:44:49.732Z,28.61
2023-05-05T11:49:51.739Z,28.02
2023-05-05T11:54:54.451Z,28.18
2023-05-05T12:00:08.508Z,27.96
2023-05-05T12:05:11.214Z,27.61
2023-05-05T12:10:13.126Z,27.80
2023-05-05T12:15:15.178Z,27.47
2023-05-05T12:20:17.104Z,27.34
2023-05-05T12:25:19.096Z,27.20
2023-05-05T12:30:22.071Z,27.14
2023-05-05T12:35:24.443Z,26.97
2023-05-05T12:40:49.355Z,26.73
2023-05-05T12:46:05.880Z,26.45
2023-05-05T12:51:20.123Z,26.29
2023-05-05T12:56:42.024Z,26.31
2023-05-05T13:02:04.492Z,26.20
2023-05-05T13:07:12.070Z,25.92
2023-05-05T13:12:15.069Z,25.95
2023-05-05T13:17:17.554Z,25.99
2023-05-05T13:22:19.538Z,25.94
2023-05-05T13:27:21.585Z,25.67
2023-05-05T13:32:26.157Z,25.82
2023-05-05T13:37:28.063Z,25.75
2023-05-05T13:42:30.074Z,25.88
2023-05-05T13:47:32.291Z,25.92
2023-05-05T13:52:34.551Z,25.81
2023-05-05T13:57:36.832Z,25.77
2023-05-05T14:02:38.956Z,25.80
2023-05-05T14:07:42.555Z,25.86
2023-05-05T14:12:44.619Z,25.96
2023-05-05T14:17:46.949Z,25.81
2023-05-05T14:22:49.447Z,25.82
2023-05-05T14:27:51.789Z,25.95
2023-05-05T14:32:53.935Z,25.90
2023-05-05T14:37:56.095Z,25.90
2023-05-05T14:42:58.181Z,25.89
2023-05-05T14:48:00.481Z,25.84
2023-05-05T14:53:02.393Z,25.79
2023-05-05T14:58:05.638Z,25.91
2023-05-05T15:08:09.654Z,25.98
2023-05-05T15:13:12.387Z,25.99
2023-05-05T15:18:14.524Z,25.98
2023-05-05T15:23:16.670Z,25.97
2023-05-05T15:28:18.849Z,26.07
2023-05-05T15:33:21.407Z,26.03
2023-05-05T15:38:23.387Z,25.99
2023-05-05T15:43:25.828Z,25.98
2023-05-05T15:48:28.486Z,26.05
2023-05-05T15:53:30.669Z,26.05
2023-05-05T15:58:32.608Z,26.10
2023-05-05T16:03:34.487Z,26.00
2023-05-05T16:08:36.931Z,26.04
2023-05-05T16:13:39.338Z,25.97
2023-05-05T16:18:41.471Z,25.98
2023-05-05T16:28:45.776Z,25.88
2023-05-05T16:33:47.780Z,25.77
2023-05-05T16:38:49.983Z,25.75
2023-05-05T16:43:52.435Z,25.74
2023-05-05T16:48:54.820Z,25.80
2023-05-05T16:53:56.911Z,25.87
2023-05-05T16:58:59.050Z,25.78
2023-05-05T17:04:02.545Z,25.56
2023-05-05T17:09:06.655Z,25.59
2023-05-05T17:14:08.677Z,25.50
2023-05-05T17:19:10.950Z,25.59
2023-05-05T17:24:13.037Z,25.56
2023-05-05T17:29:19.862Z,25.46
2023-05-05T17:34:22.203Z,25.29
2023-05-05T17:39:24.135Z,25.16
2023-05-05T17:44:26.815Z,25.23
2023-05-05T17:49:28.928Z,25.17
2023-05-05T17:54:30.871Z,25.02
2023-05-05T17:59:32.785Z,24.92
2023-05-05T18:04:37.044Z,24.74
2023-05-05T18:09:41.017Z,24.71
2023-05-05T18:14:42.909Z,24.62
2023-05-05T18:19:47.305Z,24.51
2023-05-05T18:24:51.001Z,24.43
2023-05-05T18:29:53.019Z,24.34
2023-05-05T18:34:57.694Z,24.18
2023-05-05T18:39:59.554Z,24.02
2023-05-05T18:45:01.793Z,23.97
2023-05-05T18:50:04.080Z,23.79
2023-05-05T18:55:06.216Z,23.55
2023-05-05T19:00:09.406Z,23.55
2023-05-05T19:05:11.706Z,23.45
2023-05-05T19:10:13.814Z,23.26
2023-05-05T19:15:15.785Z,23.11
2023-05-05T19:20:17.805Z,22.99
2023-05-05T19:25:19.853Z,22.84
2023-05-05T19:30:22.191Z,22.72
2023-05-05T19:35:24.756Z,22.59
2023-05-05T19:40:26.947Z,22.40
2023-05-05T19:45:28.933Z,22.32
2023-05-05T19:50:32.166Z,22.10
2023-05-05T19:55:34.119Z,21.98
2023-05-05T20:00:36.336Z,22.06
2023-05-05T20:05:38.409Z,21.95
2023-05-05T20:10:40.567Z,21.81
2023-05-05T20:15:54.113Z,21.81
2023-05-05T20:20:56.467Z,21.69
2023-05-05T20:25:58.430Z,21.57
2023-05-05T20:31:03.327Z,21.50
2023-05-05T20:36:09.216Z,21.41
2023-05-05T20:41:11.865Z,21.01
2023-05-05T20:46:13.996Z,21.21
2023-05-05T20:51:17.360Z,21.08
2023-05-05T20:56:19.533Z,20.84
2023-05-05T21:01:21.605Z,20.92
2023-05-05T21:06:24.624Z,20.91
2023-05-05T21:11:26.674Z,20.97
2023-05-05T21:16:28.643Z,21.00
2023-05-05T21:21:32.026Z,20.86
2023-05-05T21:26:34.145Z,20.82
2023-05-05T21:31:36.529Z,20.75
2023-05-05T21:36:38.746Z,20.63
2023-05-05T21:41:40.829Z,20.61
2023-05-05T21:46:43.049Z,20.39
2023-05-05T21:51:46.036Z,20.32
2023-05-05T21:56:48.098Z,20.35
2023-05-05T22:01:51.277Z,20.31
2023-05-05T22:06:53.435Z,20.02
2023-05-05T22:11:55.504Z,19.82
2023-05-05T22:16:57.598Z,19.73
2023-05-05T22:21:59.674Z,19.74
2023-05-05T22:27:01.998Z,19.51
2023-05-05T22:32:04.068Z,19.34
2023-05-05T22:37:06.185Z,19.13
2023-05-05T22:42:08.309Z,19.22
2023-05-05T22:47:10.896Z,19.18
2023-05-05T22:52:14.150Z,19.08
2023-05-05T22:57:16.659Z,19.05
2023-05-05T23:02:18.812Z,19.01
2023-05-05T23:07:22.235Z,18.88
2023-05-05T23:12:24.811Z,18.64
2023-05-05T23:17:29.297Z,18.82
2023-05-05T23:22:31.775Z,18.52
2023-05-05T23:27:34.162Z,18.45
2023-05-05T23:32:36.809Z,18.38
2023-05-05T23:37:38.771Z,18.32
2023-05-05T23:42:40.732Z,18.23
2023-05-05T23:47:42.763Z,18.10
2023-05-05T23:52:45.279Z,17.97
2023-05-05T23:57:47.316Z,17.89
